Time;durP1;ratioP1;P1;durP2;ratioP2;P2;SDS_P1;SDS_P2;PMS_P1;PMS_P2;Temp;Humidity;BMP_temperature;BMP_pressure;BME280_temperature;BME280_humidity;BME280_pressure;Samples;Min_cycle;Max_cycle;Signal;HPM_P1;HPM_P2
2022/01/24 00:01:35;;;;;;;48.45;31.52;;;6.10;99.90;;;;;;5003350;28;20107;-71
2022/01/24 00:04:02;;;;;;;47.33;32.17;;;6.20;99.90;;;;;;5004880;28;20030;-71
2022/01/24 00:06:30;;;;;;;47.90;33.40;;;6.10;99.90;;;;;;5005064;28;20050;-70
2022/01/24 00:08:56;;;;;;;;;;;6.10;99.90;;;;;;5007323;28;20046;-70
2022/01/24 00:11:26;;;;;;;47.28;32.13;;;6.10;99.90;;;;;;5007092;28;20024;-71
2022/01/24 00:14:47;;;;;;;45.40;31.58;;;6.10;99.90;;;;;;5004370;28;20045;-71
2022/01/24 00:27:07;;;;;;;44.97;31.08;;;6.10;99.90;;;;;;4993718;28;20085;-71
2022/01/24 00:29:33;;;;;;;43.10;30.55;;;6.10;99.90;;;;;;5008798;28;20092;-71
2022/01/24 00:31:58;;;;;;;41.97;30.65;;;6.10;99.90;;;;;;5009807;28;20462;-71
2022/01/24 00:34:24;;;;;;;42.42;31.10;;;6.10;99.90;;;;;;5009949;28;20101;-71
2022/01/24 00:36:51;;;;;;;43.10;30.17;;;6.10;99.90;;;;;;5010215;28;20422;-71
2022/01/24 00:39:18;;;;;;;40.47;29.23;;;6.10;99.90;;;;;;5009916;28;20045;-71
2022/01/24 00:42:06;;;;;;;39.03;29.10;;;6.10;99.90;;;;;;5008810;28;20046;-71
2022/01/24 00:44:45;;;;;;;37.67;27.88;;;6.10;99.90;;;;;;5009262;28;20050;-71
2022/01/24 00:47:18;;;;;;;38.00;28.35;;;6.10;99.90;;;;;;5008718;28;20096;-71
2022/01/24 00:49:52;;;;;;;37.28;28.30;;;6.10;99.90;;;;;;5004568;28;20078;-71
2022/01/24 00:55:04;;;;;;;33.15;25.63;;;6.10;99.90;;;;;;5010955;28;20061;-71
2022/01/24 00:57:30;;;;;;;34.30;26.08;;;6.10;99.90;;;;;;5009077;28;20128;-72
2022/01/24 00:59:55;;;;;;;31.80;25.67;;;6.10;99.90;;;;;;5009153;28;20057;-71
2022/01/24 01:02:21;;;;;;;30.15;23.88;;;6.10;99.90;;;;;;5008096;28;20404;-71
2022/01/24 01:07:36;;;;;;;29.55;24.75;;;6.10;99.90;;;;;;5009278;28;20054;-70
2022/01/24 01:18:18;;;;;;;25.70;21.67;;;6.10;99.90;;;;;;5008132;28;20049;-70
2022/01/24 01:23:28;;;;;;;22.40;19.48;;;6.00;99.90;;;;;;5012596;28;20045;-71
2022/01/24 01:25:54;;;;;;;;;;;6.10;99.90;;;;;;5009015;28;20485;-71
2022/01/24 01:28:21;;;;;;;21.47;17.77;;;6.00;99.90;;;;;;5007408;28;19931;-71
2022/01/24 01:30:50;;;;;;;21.63;18.97;;;6.00;99.90;;;;;;5004406;28;20477;-71
2022/01/24 01:36:14;;;;;;;19.75;17.45;;;6.00;99.90;;;;;;5006296;28;20058;-71
2022/01/24 01:39:01;;;;;;;20.25;17.92;;;6.00;99.90;;;;;;5006118;28;20045;-71
2022/01/24 01:55:41;;;;;;;21.23;18.10;;;5.90;99.90;;;;;;5008038;28;20050;-71
2022/01/24 01:58:12;;;;;;;19.58;17.48;;;5.90;99.90;;;;;;5006172;28;20049;-71
2022/01/24 02:00:41;;;;;;;23.52;19.42;;;6.00;99.90;;;;;;5007514;28;20073;-71
2022/01/24 02:03:07;;;;;;;24.38;20.08;;;5.90;99.90;;;;;;5009537;28;20042;-71
2022/01/24 02:05:33;;;;;;;23.88;19.77;;;5.90;99.90;;;;;;5007241;28;20049;-70
2022/01/24 02:07:59;;;;;;;22.27;18.85;;;5.90;99.90;;;;;;5007500;28;20181;-71
2022/01/24 02:10:25;;;;;;;22.13;18.48;;;6.00;99.90;;;;;;5006027;28;20370;-71
2022/01/24 02:12:53;;;;;;;21.85;19.20;;;6.00;99.90;;;;;;5005689;28;20128;-71
2022/01/24 02:15:51;;;;;;;21.10;18.58;;;5.90;99.90;;;;;;5007785;28;20053;-71
2022/01/24 02:23:36;;;;;;;25.40;21.48;;;6.00;99.90;;;;;;5008511;28;20494;-71
2022/01/24 02:26:05;;;;;;;28.13;24.17;;;6.00;99.90;;;;;;4988857;28;20088;-71
2022/01/24 02:28:50;;;;;;;30.00;25.15;;;5.90;99.90;;;;;;5002099;28;20378;-71
2022/01/24 02:31:37;;;;;;;34.75;26.63;;;5.90;99.90;;;;;;4988426;28;20118;-71
2022/01/24 02:34:04;;;;;;;32.92;26.58;;;5.90;99.90;;;;;;4993123;28;20512;-71
2022/01/24 02:36:30;;;;;;;32.67;27.17;;;5.90;99.90;;;;;;5008475;28;20129;-71
2022/01/24 02:39:21;;;;;;;31.63;26.42;;;5.90;99.90;;;;;;5005001;28;20132;-71
2022/01/24 02:49:57;;;;;;;31.77;26.90;;;5.90;99.90;;;;;;5003628;28;20053;-71
2022/01/24 02:52:25;;;;;;;38.42;29.73;;;5.90;99.90;;;;;;5008176;28;20404;-71
2022/01/24 02:54:51;;;;;;;42.75;33.13;;;5.90;99.90;;;;;;5006565;28;20053;-71
2022/01/24 02:57:17;;;;;;;41.30;33.70;;;5.90;99.90;;;;;;5006629;28;20053;-71
2022/01/24 02:59:42;;;;;;;41.25;32.80;;;5.90;99.90;;;;;;5006129;28;20037;-71
2022/01/24 03:02:08;;;;;;;41.20;31.88;;;5.90;99.90;;;;;;5006393;28;20053;-71
2022/01/24 03:04:34;;;;;;;39.78;31.95;;;5.90;99.90;;;;;;5006225;28;20050;-71
2022/01/24 03:07:00;;;;;;;39.75;31.33;;;5.90;99.90;;;;;;5004994;28;20081;-71
2022/01/24 03:09:26;;;;;;;39.47;30.63;;;5.90;99.90;;;;;;5007878;28;20038;-71
2022/01/24 03:14:29;;;;;;;39.97;31.20;;;5.90;99.90;;;;;;5010093;28;20128;-70
2022/01/24 03:16:55;;;;;;;39.75;31.27;;;5.90;99.90;;;;;;5003344;28;20082;-71
2022/01/24 03:19:21;;;;;;;43.08;32.45;;;5.90;99.90;;;;;;5006322;28;20470;-71
2022/01/24 03:21:47;;;;;;;40.90;31.05;;;5.90;99.90;;;;;;5006606;28;20606;-71
2022/01/24 03:24:14;;;;;;;38.95;31.30;;;5.90;99.90;;;;;;5006050;28;20120;-71
2022/01/24 03:26:40;;;;;;;38.33;31.70;;;5.90;99.90;;;;;;5000691;28;20057;-70
2022/01/24 03:29:06;;;;;;;41.83;32.20;;;5.90;99.90;;;;;;4998059;28;20046;-71
2022/01/24 03:31:34;;;;;;;44.47;32.78;;;5.90;99.90;;;;;;5006763;28;20057;-71
2022/01/24 03:34:00;;;;;;;42.97;33.25;;;5.90;99.90;;;;;;5005371;28;20038;-71
2022/01/24 03:36:26;;;;;;;42.67;33.15;;;5.90;99.90;;;;;;5015732;28;20606;-71
2022/01/24 03:38:51;;;;;;;45.53;35.55;;;5.90;99.90;;;;;;5006486;28;20046;-71
2022/01/24 03:41:17;;;;;;;46.08;35.72;;;5.90;99.90;;;;;;5006454;28;20092;-71
2022/01/24 03:43:43;;;;;;;46.53;36.03;;;5.90;99.90;;;;;;5007150;28;20103;-71
2022/01/24 03:48:41;;;;;;;48.33;37.05;;;5.90;99.90;;;;;;5006857;28;20575;-71
2022/01/24 03:51:07;;;;;;;47.30;36.35;;;5.90;99.90;;;;;;5006314;28;20038;-71
2022/01/24 03:53:34;;;;;;;46.45;34.65;;;5.90;99.90;;;;;;5006109;28;20050;-71
2022/01/24 03:55:59;;;;;;;47.78;36.72;;;5.90;99.90;;;;;;5005532;28;20046;-71
2022/01/24 03:58:25;;;;;;;47.72;36.47;;;5.90;99.90;;;;;;5006437;28;20045;-71
2022/01/24 04:00:51;;;;;;;51.05;37.10;;;5.90;99.90;;;;;;5003398;28;20049;-71
2022/01/24 04:03:16;;;;;;;49.10;36.28;;;5.90;99.90;;;;;;5006756;28;20088;-71
2022/01/24 04:05:42;;;;;;;48.45;37.25;;;5.90;99.90;;;;;;5003729;28;20049;-71
2022/01/24 04:08:08;;;;;;;49.38;38.72;;;5.90;99.90;;;;;;5007234;28;20042;-71
2022/01/24 04:10:41;;;;;;;50.72;37.00;;;5.90;99.90;;;;;;5004989;28;20046;-71
2022/01/24 04:13:21;;;;;;;49.63;37.15;;;5.80;99.90;;;;;;5005545;28;21188;-72
2022/01/24 04:16:09;;;;;;;51.28;38.00;;;5.80;99.90;;;;;;4994384;28;20408;-71
2022/01/24 04:18:42;;;;;;;50.75;37.80;;;5.80;99.90;;;;;;5005221;28;20061;-70
2022/01/24 04:26:24;;;;;;;53.60;37.80;;;5.80;99.90;;;;;;4993043;28;20054;-71
2022/01/24 04:28:49;;;;;;;49.65;37.30;;;5.70;99.90;;;;;;5001990;28;20041;-71
2022/01/24 04:31:16;;;;;;;51.58;37.88;;;5.70;99.90;;;;;;5005254;28;20405;-71
2022/01/24 04:33:41;;;;;;;51.75;38.50;;;5.70;99.90;;;;;;5004163;28;20057;-71
2022/01/24 04:36:07;;;;;;;51.45;39.25;;;5.70;99.90;;;;;;5001538;28;20419;-71
2022/01/24 04:38:33;;;;;;;51.95;38.50;;;5.70;99.90;;;;;;5005608;28;20121;-71
2022/01/24 04:41:04;;;;;;;49.47;37.20;;;5.70;99.90;;;;;;5005706;28;20049;-71
2022/01/24 04:46:07;;;;;;;52.22;37.03;;;5.70;99.90;;;;;;5005828;28;20136;-71
2022/01/24 04:54:39;;;;;;;54.78;38.88;;;5.70;99.90;;;;;;5004838;28;20058;-70
2022/01/24 04:57:07;;;;;;;55.65;39.22;;;5.60;99.90;;;;;;5004718;28;20686;-71
2022/01/24 04:59:33;;;;;;;58.47;41.10;;;5.60;99.90;;;;;;5005786;28;20125;-71
2022/01/24 05:01:58;;;;;;;49.83;37.33;;;5.70;99.90;;;;;;5003304;28;20216;-70
2022/01/24 05:04:24;;;;;;;54.90;38.13;;;5.70;99.90;;;;;;5005573;28;20053;-71
2022/01/24 05:06:49;;;;;;;59.45;40.45;;;5.70;99.90;;;;;;5002911;28;20050;-70
2022/01/24 05:09:17;;;;;;;53.90;39.15;;;5.70;99.90;;;;;;5008115;28;20132;-70
2022/01/24 05:11:50;;;;;;;;;;;5.70;99.90;;;;;;5010253;28;20046;-71
2022/01/24 05:25:26;;;;;;;58.35;40.42;;;5.60;99.90;;;;;;5006989;28;20066;-71
2022/01/24 05:27:52;;;;;;;56.55;38.65;;;5.70;99.90;;;;;;5009148;28;20060;-71
2022/01/24 05:30:18;;;;;;;57.40;40.08;;;5.70;99.90;;;;;;5008257;28;20397;-71
2022/01/24 05:32:44;;;;;;;54.88;40.58;;;5.70;99.90;;;;;;5003165;28;20093;-71
2022/01/24 05:35:10;;;;;;;58.97;41.28;;;5.70;99.90;;;;;;5003048;28;20046;-71
2022/01/24 05:37:35;;;;;;;57.20;39.63;;;5.70;99.90;;;;;;5007959;28;20108;-71
2022/01/24 05:40:01;;;;;;;55.53;39.65;;;5.70;99.90;;;;;;5004986;28;20054;-70
2022/01/24 05:42:27;;;;;;;56.13;39.90;;;5.70;99.90;;;;;;4993030;28;20145;-71
2022/01/24 05:44:52;;;;;;;60.33;42.17;;;5.60;99.90;;;;;;5007291;28;20085;-71
2022/01/24 05:47:18;;;;;;;56.65;40.17;;;5.60;99.90;;;;;;5007464;28;20053;-71
2022/01/24 05:49:44;;;;;;;56.72;39.63;;;5.60;99.90;;;;;;5006781;28;20056;-71
2022/01/24 05:52:11;;;;;;;55.63;41.17;;;5.70;99.90;;;;;;5007917;28;20074;-71
2022/01/24 05:54:38;;;;;;;58.50;41.97;;;5.60;99.90;;;;;;5005848;28;20830;-70
2022/01/24 05:57:05;;;;;;;57.47;41.33;;;5.60;99.90;;;;;;5008983;28;20104;-71
2022/01/24 05:59:30;;;;;;;57.70;41.95;;;5.60;99.90;;;;;;5005695;28;20053;-71
2022/01/24 06:01:56;;;;;;;59.22;40.63;;;5.60;99.90;;;;;;5008388;28;20050;-71
2022/01/24 06:04:22;;;;;;;60.70;43.15;;;5.50;99.90;;;;;;5007080;28;20037;-71
2022/01/24 06:06:47;;;;;;;56.50;42.47;;;5.60;99.90;;;;;;5003725;28;20045;-71
2022/01/24 06:09:13;;;;;;;59.20;43.85;;;5.60;99.90;;;;;;5007564;28;20045;-71
2022/01/24 06:11:38;;;;;;;60.83;42.67;;;5.60;99.90;;;;;;5007660;28;20569;-71
2022/01/24 06:14:04;;;;;;;61.00;43.05;;;5.60;99.90;;;;;;5008044;28;20124;-71
2022/01/24 06:16:30;;;;;;;59.55;43.10;;;5.60;99.90;;;;;;5005432;28;20525;-71
2022/01/24 06:18:56;;;;;;;62.05;43.75;;;5.70;99.90;;;;;;5006780;28;20038;-71
2022/01/24 06:21:22;;;;;;;63.95;42.75;;;5.60;99.90;;;;;;5017691;28;20065;-71
2022/01/24 06:23:48;;;;;;;62.70;43.40;;;5.60;99.90;;;;;;5021622;28;20042;-71
2022/01/24 06:26:14;;;;;;;60.45;42.08;;;5.60;99.90;;;;;;5007991;28;20077;-71
2022/01/24 06:28:40;;;;;;;61.55;45.25;;;5.60;99.90;;;;;;5007134;28;20045;-71
2022/01/24 06:31:05;;;;;;;62.13;44.03;;;5.60;99.90;;;;;;5007482;28;20449;-70
2022/01/24 06:33:32;;;;;;;65.55;44.20;;;5.60;99.90;;;;;;5006164;28;20195;-71
2022/01/24 06:35:57;;;;;;;63.85;45.95;;;5.60;99.90;;;;;;5007998;28;20072;-71
2022/01/24 06:38:23;;;;;;;60.53;43.42;;;5.60;99.90;;;;;;5005475;28;20401;-71
2022/01/24 06:40:49;;;;;;;61.42;42.83;;;5.60;99.90;;;;;;5007297;28;20054;-71
2022/01/24 06:43:15;;;;;;;59.47;42.95;;;5.60;99.90;;;;;;5009252;28;20041;-71
2022/01/24 06:45:40;;;;;;;60.80;41.97;;;5.60;99.90;;;;;;5006171;28;20185;-71
2022/01/24 06:48:06;;;;;;;61.30;43.35;;;5.60;99.90;;;;;;5006342;28;20045;-71
2022/01/24 06:50:32;;;;;;;58.63;41.05;;;5.60;99.90;;;;;;5005695;28;20436;-73
2022/01/24 06:52:57;;;;;;;60.20;41.67;;;5.60;99.90;;;;;;5009616;28;20092;-71
2022/01/24 06:55:23;;;;;;;65.78;43.08;;;5.60;99.90;;;;;;5003722;28;20081;-71
2022/01/24 06:57:49;;;;;;;60.80;41.83;;;5.50;99.90;;;;;;5006353;28;20045;-71
2022/01/24 07:00:14;;;;;;;63.03;42.45;;;5.50;99.90;;;;;;5006317;28;20121;-71
2022/01/24 07:02:40;;;;;;;60.47;43.50;;;5.60;99.90;;;;;;5003796;28;20041;-71
2022/01/24 07:05:06;;;;;;;61.10;42.10;;;5.60;99.90;;;;;;5000584;28;20048;-71
2022/01/24 07:07:33;;;;;;;57.85;41.10;;;5.50;99.90;;;;;;5004294;28;20421;-71
2022/01/24 07:09:59;;;;;;;56.35;39.80;;;5.50;99.90;;;;;;5003806;28;20056;-71
2022/01/24 07:12:25;;;;;;;59.53;40.78;;;5.50;99.90;;;;;;5002405;28;20727;-71
2022/01/24 07:14:52;;;;;;;61.08;43.72;;;5.50;99.90;;;;;;5003330;28;20046;-71
2022/01/24 07:19:46;;;;;;;62.72;44.35;;;5.50;99.90;;;;;;5003558;28;20054;-71
2022/01/24 07:22:11;;;;;;;61.55;42.10;;;5.50;99.90;;;;;;5002092;28;20899;-71
2022/01/24 07:24:37;;;;;;;63.47;43.22;;;5.60;99.90;;;;;;5004052;28;20045;-71
2022/01/24 07:27:03;;;;;;;63.33;42.85;;;5.60;99.90;;;;;;5000909;28;20045;-71
2022/01/24 07:29:29;;;;;;;63.95;43.00;;;5.60;99.90;;;;;;5000788;28;20054;-70
2022/01/24 07:31:55;;;;;;;59.45;42.50;;;5.60;99.90;;;;;;4995020;28;20042;-71
2022/01/24 07:34:20;;;;;;;63.33;44.28;;;5.60;99.90;;;;;;5002382;28;20389;-71
2022/01/24 07:36:46;;;;;;;59.38;42.15;;;5.50;99.90;;;;;;5003341;28;20043;-71
2022/01/24 07:39:12;;;;;;;60.85;41.30;;;5.50;99.90;;;;;;5005072;28;20100;-71
2022/01/24 07:41:44;;;;;;;63.67;41.80;;;5.50;99.90;;;;;;5001391;28;20712;-71
2022/01/24 07:44:10;;;;;;;59.22;41.97;;;5.50;99.90;;;;;;5002168;28;20085;-71
2022/01/24 07:46:35;;;;;;;60.10;41.80;;;5.50;99.90;;;;;;5000075;28;20155;-71
2022/01/24 07:49:03;;;;;;;60.08;42.10;;;5.50;99.90;;;;;;5004090;28;20120;-71
2022/01/24 07:51:29;;;;;;;59.92;41.08;;;5.50;99.90;;;;;;4998889;28;20050;-71
2022/01/24 07:53:54;;;;;;;58.95;41.65;;;5.50;99.90;;;;;;5005206;28;20553;-71
2022/01/24 07:56:20;;;;;;;60.30;42.42;;;5.50;99.90;;;;;;5002492;28;20050;-71
2022/01/24 07:58:46;;;;;;;60.30;41.75;;;5.50;99.90;;;;;;5001759;28;20367;-71
2022/01/24 08:01:13;;;;;;;60.45;42.03;;;5.50;99.90;;;;;;5001283;28;20050;-71
2022/01/24 08:03:38;;;;;;;57.55;40.80;;;5.50;99.90;;;;;;4999889;28;20088;-71
2022/01/24 08:06:04;;;;;;;60.38;41.20;;;5.50;99.90;;;;;;4998347;28;20047;-71
2022/01/24 08:08:29;;;;;;;59.28;41.88;;;5.50;99.90;;;;;;4999388;28;20033;-71
2022/01/24 08:10:55;;;;;;;61.17;42.63;;;5.50;99.90;;;;;;5001596;28;21239;-71
2022/01/24 08:13:21;;;;;;;62.47;42.92;;;5.50;99.90;;;;;;4998947;28;20053;-71
2022/01/24 08:15:46;;;;;;;61.95;43.42;;;5.50;99.90;;;;;;5002536;28;20037;-71
2022/01/24 08:18:14;;;;;;;59.72;41.60;;;5.50;99.90;;;;;;5003454;28;20057;-71
2022/01/24 08:20:41;;;;;;;60.58;42.85;;;5.60;99.90;;;;;;5007415;28;20091;-71
2022/01/24 08:23:11;;;;;;;61.25;42.58;;;5.60;99.90;;;;;;5007039;28;20085;-71
2022/01/24 08:25:37;;;;;;;62.03;42.55;;;5.60;99.90;;;;;;5001150;28;20351;-73
2022/01/24 08:28:03;;;;;;;62.42;43.22;;;5.60;99.90;;;;;;5003906;28;20044;-69
2022/01/24 08:30:29;;;;;;;60.30;42.22;;;5.60;99.90;;;;;;5002153;28;20050;-69
2022/01/24 08:32:54;;;;;;;62.88;44.83;;;5.60;99.90;;;;;;5003719;28;20053;-70
2022/01/24 08:35:21;;;;;;;64.05;45.50;;;5.60;99.90;;;;;;5006553;28;20042;-70
2022/01/24 08:37:47;;;;;;;65.43;44.80;;;5.60;99.90;;;;;;5005821;28;20034;-70
2022/01/24 08:40:25;;;;;;;66.38;46.55;;;5.60;99.90;;;;;;5004301;28;20787;-70
2022/01/24 08:42:57;;;;;;;66.55;44.70;;;5.60;99.90;;;;;;5003564;28;20045;-70
2022/01/24 08:48:10;;;;;;;61.00;45.20;;;5.70;99.90;;;;;;5009390;28;20053;-70
2022/01/24 08:50:36;;;;;;;63.95;45.88;;;5.70;99.90;;;;;;5009605;28;20050;-71
2022/01/24 08:53:03;;;;;;;57.45;43.10;;;5.70;99.90;;;;;;5007871;28;20121;-70
2022/01/24 08:55:33;;;;;;;56.33;43.92;;;5.70;99.90;;;;;;5012843;28;20061;-70
2022/01/24 08:58:03;;;;;;;55.38;42.70;;;5.70;99.90;;;;;;5009596;28;20185;-70
2022/01/24 09:00:29;;;;;;;54.90;41.70;;;5.70;99.90;;;;;;5007524;28;20057;-70
2022/01/24 09:02:55;;;;;;;57.40;41.85;;;5.70;99.90;;;;;;5010825;28;20037;-70
2022/01/24 09:05:22;;;;;;;55.20;43.20;;;5.70;99.90;;;;;;5010317;28;20038;-70
2022/01/24 09:07:49;;;;;;;54.72;41.95;;;5.80;99.90;;;;;;5006397;28;20069;-71
2022/01/24 09:10:16;;;;;;;56.35;41.55;;;5.80;99.90;;;;;;5008633;28;20596;-70
2022/01/24 09:12:41;;;;;;;55.05;42.53;;;5.80;99.90;;;;;;5007841;28;20061;-70
2022/01/24 09:15:07;;;;;;;57.05;42.67;;;5.80;99.90;;;;;;5008091;28;20045;-70
2022/01/24 09:17:34;;;;;;;52.30;40.83;;;5.80;99.90;;;;;;5007305;28;20508;-71
2022/01/24 09:20:00;;;;;;;53.35;41.13;;;5.80;99.90;;;;;;5008125;28;20092;-71
2022/01/24 09:22:27;;;;;;;55.28;42.88;;;5.80;99.90;;;;;;5008549;28;20093;-70
2022/01/24 09:24:53;;;;;;;53.38;41.95;;;5.80;99.90;;;;;;5008072;28;20042;-70
2022/01/24 09:27:18;;;;;;;53.58;42.67;;;5.80;99.90;;;;;;5008101;28;20060;-71
2022/01/24 09:29:44;;;;;;;49.75;40.42;;;5.80;99.90;;;;;;5008104;28;20069;-71
2022/01/24 09:32:10;;;;;;;46.33;39.40;;;5.80;99.90;;;;;;5008731;28;20128;-71
2022/01/24 09:34:36;;;;;;;47.72;40.80;;;5.90;99.90;;;;;;5007425;28;20034;-72
2022/01/24 09:37:02;;;;;;;44.28;37.65;;;5.80;99.90;;;;;;5007587;28;20041;-71
2022/01/24 09:39:27;;;;;;;40.90;36.22;;;5.90;99.90;;;;;;5008263;28;20046;-71
2022/01/24 09:41:54;;;;;;;42.17;36.03;;;5.90;99.90;;;;;;5006680;28;20046;-72
2022/01/24 09:44:20;;;;;;;41.92;37.47;;;5.90;99.90;;;;;;5007920;28;20046;-71
2022/01/24 09:46:46;;;;;;;39.30;35.10;;;5.90;99.90;;;;;;5008375;28;20084;-71
2022/01/24 09:49:13;;;;;;;34.47;30.70;;;5.90;99.90;;;;;;5007832;28;20042;-71
2022/01/24 09:51:39;;;;;;;33.00;29.63;;;5.90;99.90;;;;;;5007171;28;20038;-71
2022/01/24 09:54:06;;;;;;;32.45;28.90;;;6.00;99.90;;;;;;5008723;28;20109;-71
2022/01/24 09:56:33;;;;;;;32.25;28.98;;;5.90;99.90;;;;;;5007627;28;20054;-71
2022/01/24 09:58:59;;;;;;;32.30;29.00;;;5.90;99.90;;;;;;5006851;28;20038;-71
2022/01/24 10:01:25;;;;;;;35.20;31.50;;;5.90;99.90;;;;;;5008424;28;20488;-71
2022/01/24 10:04:25;;;;;;;36.63;32.63;;;6.00;99.90;;;;;;5005288;28;20485;-76
2022/01/24 10:07:04;;;;;;;38.75;34.58;;;6.00;99.90;;;;;;4984995;28;20094;-76
2022/01/24 10:09:41;;;;;;;38.92;34.67;;;6.00;99.90;;;;;;5019193;28;20148;-71
2022/01/24 10:17:36;;;;;;;;;;;6.00;99.90;;;;;;5009653;28;21039;-72
2022/01/24 10:20:22;;;;;;;41.47;36.97;;;6.00;99.90;;;;;;5015658;28;20007;-72
2022/01/24 10:23:04;;;;;;;43.03;38.40;;;6.00;99.90;;;;;;5005775;28;20355;-72
2022/01/24 10:25:31;;;;;;;49.00;43.75;;;6.00;99.90;;;;;;5006919;28;20305;-71
2022/01/24 10:28:04;;;;;;;46.95;42.03;;;6.00;99.90;;;;;;5005416;28;20041;-70
2022/01/24 10:30:31;;;;;;;48.20;42.97;;;6.00;99.90;;;;;;5008426;28;20034;-71
2022/01/24 10:32:59;;;;;;;49.58;44.28;;;6.00;99.90;;;;;;5009702;28;20037;-71
2022/01/24 10:35:44;;;;;;;50.60;44.67;;;6.00;99.90;;;;;;5006535;28;20085;-69
2022/01/24 10:38:40;;;;;;;50.83;45.47;;;6.00;99.90;;;;;;5008090;28;20060;-70
2022/01/24 10:41:40;;;;;;;53.70;47.92;;;6.10;99.90;;;;;;5005235;28;20136;-70
2022/01/24 10:44:08;;;;;;;57.00;50.90;;;6.10;99.90;;;;;;5006199;28;20050;-71
2022/01/24 10:46:34;;;;;;;55.33;49.33;;;6.20;99.90;;;;;;5005714;28;20050;-70
2022/01/24 10:49:06;;;;;;;56.70;50.58;;;6.20;99.90;;;;;;5006985;28;20413;-70
2022/01/24 10:51:46;;;;;;;57.22;50.97;;;6.20;99.90;;;;;;5006546;28;20042;-69
2022/01/24 10:54:26;;;;;;;57.20;50.55;;;6.20;99.90;;;;;;5004719;28;20065;-70
2022/01/24 10:56:52;;;;;;;51.75;46.17;;;6.20;99.90;;;;;;5007141;28;20076;-72
2022/01/24 10:59:24;;;;;;;52.60;46.80;;;6.20;99.90;;;;;;5005910;28;20068;-71
2022/01/24 11:01:54;;;;;;;52.13;46.42;;;6.20;99.90;;;;;;5005429;28;20050;-70
2022/01/24 11:04:23;;;;;;;55.38;49.10;;;6.10;99.90;;;;;;5006738;28;20084;-71
2022/01/24 11:06:51;;;;;;;54.53;48.65;;;6.20;99.90;;;;;;5005730;28;20099;-71
2022/01/24 11:09:29;;;;;;;55.72;49.58;;;6.10;99.90;;;;;;5005999;28;20048;-70
2022/01/24 11:11:57;;;;;;;56.25;49.80;;;6.20;99.90;;;;;;5006895;28;20033;-71
2022/01/24 11:14:25;;;;;;;58.35;52.00;;;6.10;99.90;;;;;;5005682;28;20050;-71
2022/01/24 11:16:52;;;;;;;56.45;49.97;;;6.10;99.90;;;;;;5027258;28;20053;-71
2022/01/24 11:21:57;;;;;;;52.00;46.40;;;6.10;99.90;;;;;;4993487;28;20045;-71
2022/01/24 11:24:36;;;;;;;54.65;48.40;;;6.10;99.90;;;;;;5005286;28;20050;-73
2022/01/24 11:27:02;;;;;;;50.92;45.33;;;6.10;99.90;;;;;;5006023;28;20074;-74
2022/01/24 11:29:28;;;;;;;45.40;40.50;;;6.10;99.90;;;;;;5006826;28;20034;-70
2022/01/24 11:32:40;;;;;;;46.47;41.38;;;6.10;99.90;;;;;;5003864;28;20148;-71
2022/01/24 11:35:06;;;;;;;45.47;40.35;;;6.10;99.90;;;;;;4949021;28;20053;-76
2022/01/24 11:37:42;;;;;;;48.00;42.90;;;6.10;99.90;;;;;;4948090;28;20072;-70
2022/01/24 11:40:13;;;;;;;46.78;41.67;;;6.10;99.90;;;;;;4972699;28;20145;-70
2022/01/24 11:42:40;;;;;;;49.65;44.05;;;6.10;99.90;;;;;;5003476;28;20135;-70
2022/01/24 11:45:14;;;;;;;51.58;45.03;;;6.10;99.90;;;;;;5005878;28;20088;-69
2022/01/24 11:47:44;;;;;;;47.55;42.45;;;6.10;99.90;;;;;;5005488;28;20052;-71
2022/01/24 11:50:32;;;;;;;45.70;40.80;;;6.10;99.90;;;;;;5004142;28;20049;-71
2022/01/24 11:52:58;;;;;;;48.63;43.35;;;6.10;99.90;;;;;;5003565;28;20045;-70
2022/01/24 11:55:35;;;;;;;48.55;43.35;;;6.10;99.90;;;;;;5004671;28;20096;-71
2022/01/24 11:58:04;;;;;;;48.88;43.78;;;6.10;99.90;;;;;;5003746;28;20077;-71
2022/01/24 12:00:37;;;;;;;44.60;39.80;;;6.10;99.90;;;;;;4993988;28;20124;-71
2022/01/24 12:03:23;;;;;;;44.72;39.92;;;6.00;99.90;;;;;;5011686;28;20136;-71
2022/01/24 12:05:53;;;;;;;47.08;42.13;;;6.10;99.90;;;;;;5021977;28;20132;-72
2022/01/24 12:08:34;;;;;;;42.38;37.97;;;6.10;99.90;;;;;;5005080;28;20392;-70
2022/01/24 12:11:24;;;;;;;47.13;42.00;;;6.10;99.90;;;;;;5002511;28;20104;-69
2022/01/24 12:14:02;;;;;;;45.67;40.78;;;6.10;99.90;;;;;;5001362;28;20050;-69
2022/01/24 12:16:42;;;;;;;45.45;40.63;;;6.00;99.90;;;;;;5006762;28;20041;-70
2022/01/24 12:19:08;;;;;;;49.63;44.22;;;6.00;99.90;;;;;;5007765;28;20060;-70
2022/01/24 12:21:36;;;;;;;50.17;44.60;;;6.00;99.90;;;;;;5010291;28;20058;-69
2022/01/24 12:24:03;;;;;;;46.00;41.08;;;6.00;99.90;;;;;;5010295;28;20052;-69
2022/01/24 12:26:39;;;;;;;43.13;38.50;;;6.00;99.90;;;;;;5007159;28;20077;-70
2022/01/24 12:29:12;;;;;;;45.03;40.33;;;6.00;99.90;;;;;;5009079;28;20045;-69
2022/01/24 12:31:59;;;;;;;44.75;39.85;;;5.90;99.90;;;;;;5007677;28;20053;-69
2022/01/24 12:34:27;;;;;;;45.05;40.45;;;5.90;99.90;;;;;;5009050;28;20053;-69
2022/01/24 12:37:07;;;;;;;47.80;42.78;;;6.00;99.90;;;;;;5007206;28;20065;-69
2022/01/24 12:39:36;;;;;;;45.67;40.80;;;6.00;99.90;;;;;;5006612;28;20046;-70
2022/01/24 12:42:13;;;;;;;42.80;38.33;;;6.00;99.90;;;;;;5008958;28;20049;-69
2022/01/24 12:47:17;;;;;;;41.80;37.45;;;5.90;99.90;;;;;;5007119;28;20513;-70
2022/01/24 12:49:44;;;;;;;41.33;37.13;;;5.90;99.90;;;;;;5006433;28;20049;-69
2022/01/24 12:52:22;;;;;;;43.95;39.45;;;5.90;99.90;;;;;;5008604;28;20045;-69
2022/01/24 12:54:54;;;;;;;42.33;37.92;;;5.90;99.90;;;;;;5007271;28;20080;-70
2022/01/24 12:57:29;;;;;;;43.75;39.22;;;5.90;99.90;;;;;;5009243;28;20045;-72
2022/01/24 13:00:01;;;;;;;44.95;40.33;;;5.90;99.90;;;;;;5001664;28;20076;-69
2022/01/24 13:02:29;;;;;;;48.33;43.33;;;5.90;99.90;;;;;;5011933;28;20046;-71
2022/01/24 13:05:06;;;;;;;46.85;42.08;;;5.90;99.90;;;;;;5006985;28;20030;-69
2022/01/24 13:07:32;;;;;;;50.57;45.10;;;5.90;99.90;;;;;;5007501;28;20041;-69
2022/01/24 13:10:12;;;;;;;51.90;46.47;;;5.90;99.90;;;;;;5007219;28;20069;-69
2022/01/24 13:12:39;;;;;;;51.58;46.28;;;5.90;99.90;;;;;;5008079;28;20046;-70
2022/01/24 13:15:09;;;;;;;50.97;45.58;;;5.90;99.90;;;;;;5008518;28;20121;-69
2022/01/24 13:22:55;;;;;;;42.38;38.08;;;5.90;99.90;;;;;;5007940;28;20058;-70
2022/01/24 13:25:30;;;;;;;42.03;37.95;;;5.90;99.90;;;;;;5008177;28;20420;-70
2022/01/24 13:27:58;;;;;;;43.08;38.78;;;5.90;99.90;;;;;;5005516;28;20112;-70
2022/01/24 13:30:27;;;;;;;41.45;37.30;;;5.90;99.90;;;;;;5009185;28;20096;-70
2022/01/24 13:32:54;;;;;;;40.45;36.40;;;5.90;99.90;;;;;;5006694;28;20096;-70
2022/01/24 13:35:35;;;;;;;40.67;36.75;;;5.90;99.90;;;;;;5006577;28;20054;-70
2022/01/24 13:38:15;;;;;;;40.03;36.10;;;5.90;99.90;;;;;;5006666;28;20054;-70
2022/01/24 13:40:42;;;;;;;43.55;39.17;;;5.90;99.90;;;;;;5008305;28;20054;-70
2022/01/24 13:43:10;;;;;;;43.03;38.80;;;5.90;99.90;;;;;;5006714;28;20081;-70
2022/01/24 13:45:37;;;;;;;39.33;35.53;;;5.90;99.90;;;;;;5003040;28;20045;-70
2022/01/24 13:48:05;;;;;;;38.90;35.20;;;5.90;99.90;;;;;;5007184;28;20056;-70
2022/01/24 13:50:32;;;;;;;40.40;36.40;;;5.90;99.90;;;;;;4988802;28;20046;-70
2022/01/24 13:52:58;;;;;;;39.55;35.65;;;5.90;99.90;;;;;;4988974;28;20046;-70
2022/01/24 13:55:24;;;;;;;39.60;35.50;;;5.80;99.90;;;;;;5005203;28;20143;-71
2022/01/24 13:57:52;;;;;;;40.78;36.78;;;5.80;99.90;;;;;;5007008;28;20041;-71
2022/01/24 14:00:24;;;;;;;42.13;37.97;;;5.80;99.90;;;;;;5005602;28;20038;-71
2022/01/24 14:03:10;;;;;;;42.03;37.80;;;5.80;99.90;;;;;;5007608;28;20042;-71
2022/01/24 14:05:36;;;;;;;43.22;38.85;;;5.80;99.90;;;;;;5007294;28;20045;-70
2022/01/24 14:08:15;;;;;;;42.28;37.97;;;5.70;99.90;;;;;;5006411;28;20046;-70
2022/01/24 14:10:42;;;;;;;42.28;38.05;;;5.80;99.90;;;;;;5004915;28;20053;-70
2022/01/24 14:13:08;;;;;;;42.08;37.88;;;5.80;99.90;;;;;;5012062;28;20038;-70
2022/01/24 14:15:47;;;;;;;41.80;37.70;;;5.80;99.90;;;;;;5007122;28;20069;-70
2022/01/24 14:20:53;;;;;;;42.83;38.63;;;5.80;99.90;;;;;;5006523;28;20425;-70
2022/01/24 14:23:25;;;;;;;40.65;36.65;;;5.80;99.90;;;;;;5005294;28;20097;-69
2022/01/24 14:25:52;;;;;;;41.75;37.53;;;5.80;99.90;;;;;;5003740;28;20057;-69
2022/01/24 14:28:22;;;;;;;42.08;37.97;;;5.80;99.90;;;;;;5006559;28;20115;-69
2022/01/24 14:30:48;;;;;;;43.47;39.03;;;5.70;99.90;;;;;;5005953;28;20057;-69
2022/01/24 14:33:18;;;;;;;43.22;38.83;;;5.80;99.90;;;;;;5006129;28;20053;-69
2022/01/24 14:35:50;;;;;;;44.45;39.95;;;5.70;99.90;;;;;;5006286;28;20472;-69
2022/01/24 14:38:31;;;;;;;43.80;39.55;;;5.70;99.90;;;;;;5004581;28;20808;-69
2022/01/24 14:41:01;;;;;;;42.75;38.53;;;5.80;99.90;;;;;;5003449;28;20097;-69